sensor_id;sensor_type;location;lat;lon;timestamp;P1;durP1;ratioP1;P2;durP2;ratioP2
63664;SDS011;49820;33.966;73.390;2023-02-01T00:01:44;3.35;;;1.63;;
63664;SDS011;49820;33.966;73.390;2023-02-01T00:04:14;3.55;;;1.50;;
63664;SDS011;49820;33.966;73.390;2023-02-01T00:06:43;2.57;;;1.50;;
63664;SDS011;49820;33.966;73.390;2023-02-01T00:09:13;2.90;;;1.52;;
63664;SDS011;49820;33.966;73.390;2023-02-01T00:11:42;2.55;;;1.33;;
63664;SDS011;49820;33.966;73.390;2023-02-01T00:14:11;3.87;;;1.70;;
63664;SDS011;49820;33.966;73.390;2023-02-01T00:16:42;2.75;;;1.58;;
63664;SDS011;49820;33.966;73.390;2023-02-01T00:19:12;2.63;;;1.65;;
63664;SDS011;49820;33.966;73.390;2023-02-01T00:21:43;3.13;;;1.60;;
63664;SDS011;49820;33.966;73.390;2023-02-01T00:24:13;2.25;;;1.40;;
63664;SDS011;49820;33.966;73.390;2023-02-01T00:26:44;3.00;;;1.60;;
63664;SDS011;49820;33.966;73.390;2023-02-01T00:29:17;3.92;;;1.67;;
63664;SDS011;49820;33.966;73.390;2023-02-01T00:31:49;3.03;;;1.53;;
63664;SDS011;49820;33.966;73.390;2023-02-01T00:34:21;3.13;;;1.40;;
63664;SDS011;49820;33.966;73.390;2023-02-01T00:36:51;2.72;;;1.45;;
63664;SDS011;49820;33.966;73.390;2023-02-01T00:39:21;2.60;;;1.40;;
63664;SDS011;49820;33.966;73.390;2023-02-01T00:41:51;2.80;;;1.35;;
63664;SDS011;49820;33.966;73.390;2023-02-01T00:44:20;2.60;;;1.40;;
63664;SDS011;49820;33.966;73.390;2023-02-01T00:46:49;3.03;;;1.70;;
63664;SDS011;49820;33.966;73.390;2023-02-01T00:49:19;3.08;;;1.70;;
63664;SDS011;49820;33.966;73.390;2023-02-01T00:51:48;2.85;;;1.85;;
63664;SDS011;49820;33.966;73.390;2023-02-01T00:54:17;3.42;;;1.38;;
63664;SDS011;49820;33.966;73.390;2023-02-01T00:56:47;2.40;;;1.33;;
63664;SDS011;49820;33.966;73.390;2023-02-01T00:59:18;2.60;;;1.50;;
63664;SDS011;49820;33.966;73.390;2023-02-01T01:01:47;3.10;;;1.50;;
63664;SDS011;49820;33.966;73.390;2023-02-01T01:04:17;3.50;;;2.00;;
63664;SDS011;49820;33.966;73.390;2023-02-01T01:06:46;2.90;;;1.52;;
63664;SDS011;49820;33.966;73.390;2023-02-01T01:09:15;3.42;;;1.58;;
63664;SDS011;49820;33.966;73.390;2023-02-01T01:11:46;3.58;;;1.50;;
63664;SDS011;49820;33.966;73.390;2023-02-01T01:14:15;2.20;;;1.35;;
63664;SDS011;49820;33.966;73.390;2023-02-01T01:16:45;3.45;;;1.70;;
63664;SDS011;49820;33.966;73.390;2023-02-01T01:19:14;2.42;;;1.40;;
63664;SDS011;49820;33.966;73.390;2023-02-01T01:21:44;2.40;;;1.40;;
63664;SDS011;49820;33.966;73.390;2023-02-01T01:24:13;1.77;;;1.10;;
63664;SDS011;49820;33.966;73.390;2023-02-01T01:26:43;2.58;;;1.30;;
63664;SDS011;49820;33.966;73.390;2023-02-01T01:29:13;3.03;;;1.23;;
63664;SDS011;49820;33.966;73.390;2023-02-01T01:31:43;2.97;;;1.33;;
63664;SDS011;49820;33.966;73.390;2023-02-01T01:34:12;2.72;;;1.30;;
63664;SDS011;49820;33.966;73.390;2023-02-01T01:36:41;3.03;;;1.30;;
63664;SDS011;49820;33.966;73.390;2023-02-01T01:39:11;2.97;;;1.40;;
63664;SDS011;49820;33.966;73.390;2023-02-01T01:41:40;2.42;;;1.50;;
63664;SDS011;49820;33.966;73.390;2023-02-01T01:47:37;2.92;;;1.52;;
63664;SDS011;49820;33.966;73.390;2023-02-01T01:50:14;3.33;;;1.52;;
63664;SDS011;49820;33.966;73.390;2023-02-01T01:52:49;2.60;;;1.52;;
63664;SDS011;49820;33.966;73.390;2023-02-01T01:55:24;2.88;;;1.38;;
63664;SDS011;49820;33.966;73.390;2023-02-01T01:57:59;3.08;;;1.40;;
63664;SDS011;49820;33.966;73.390;2023-02-01T02:00:33;2.45;;;1.40;;
63664;SDS011;49820;33.966;73.390;2023-02-01T02:03:09;2.20;;;1.30;;
63664;SDS011;49820;33.966;73.390;2023-02-01T02:05:43;3.03;;;1.40;;
63664;SDS011;49820;33.966;73.390;2023-02-01T02:08:14;2.97;;;1.77;;
63664;SDS011;49820;33.966;73.390;2023-02-01T02:10:45;3.63;;;1.85;;
63664;SDS011;49820;33.966;73.390;2023-02-01T02:13:36;2.47;;;1.38;;
63664;SDS011;49820;33.966;73.390;2023-02-01T02:19:25;2.35;;;1.30;;
63664;SDS011;49820;33.966;73.390;2023-02-01T02:48:43;2.85;;;1.60;;
63664;SDS011;49820;33.966;73.390;2023-02-01T02:51:23;3.53;;;1.65;;
63664;SDS011;49820;33.966;73.390;2023-02-01T02:54:17;3.42;;;1.48;;
63664;SDS011;49820;33.966;73.390;2023-02-01T02:57:34;2.88;;;1.67;;
63664;SDS011;49820;33.966;73.390;2023-02-01T03:00:27;3.25;;;1.60;;
63664;SDS011;49820;33.966;73.390;2023-02-01T03:03:19;4.47;;;1.60;;
63664;SDS011;49820;33.966;73.390;2023-02-01T03:06:15;2.42;;;1.50;;
63664;SDS011;49820;33.966;73.390;2023-02-01T03:08:48;2.60;;;1.42;;
63664;SDS011;49820;33.966;73.390;2023-02-01T03:11:22;4.07;;;1.53;;
63664;SDS011;49820;33.966;73.390;2023-02-01T03:14:13;2.30;;;1.33;;
63664;SDS011;49820;33.966;73.390;2023-02-01T03:16:50;2.47;;;1.57;;
63664;SDS011;49820;33.966;73.390;2023-02-01T03:19:29;2.67;;;1.67;;
63664;SDS011;49820;33.966;73.390;2023-02-01T03:22:06;3.25;;;1.67;;
63664;SDS011;49820;33.966;73.390;2023-02-01T03:24:48;2.78;;;1.67;;
63664;SDS011;49820;33.966;73.390;2023-02-01T03:27:32;2.73;;;1.70;;
63664;SDS011;49820;33.966;73.390;2023-02-01T03:32:50;2.75;;;1.48;;
63664;SDS011;49820;33.966;73.390;2023-02-01T03:35:41;2.20;;;1.45;;
63664;SDS011;49820;33.966;73.390;2023-02-01T03:38:23;2.45;;;1.60;;
63664;SDS011;49820;33.966;73.390;2023-02-01T03:47:02;2.55;;;1.50;;
63664;SDS011;49820;33.966;73.390;2023-02-01T03:50:08;2.60;;;1.60;;
63664;SDS011;49820;33.966;73.390;2023-02-01T03:55:21;2.95;;;1.70;;
63664;SDS011;49820;33.966;73.390;2023-02-01T03:57:56;2.95;;;1.60;;
63664;SDS011;49820;33.966;73.390;2023-02-01T04:00:38;3.45;;;1.70;;
63664;SDS011;49820;33.966;73.390;2023-02-01T04:03:08;2.20;;;1.40;;
63664;SDS011;49820;33.966;73.390;2023-02-01T04:05:37;3.75;;;1.70;;
63664;SDS011;49820;33.966;73.390;2023-02-01T04:08:08;2.35;;;1.55;;
63664;SDS011;49820;33.966;73.390;2023-02-01T04:10:38;3.00;;;1.80;;
63664;SDS011;49820;33.966;73.390;2023-02-01T04:13:07;3.17;;;1.75;;
63664;SDS011;49820;33.966;73.390;2023-02-01T04:15:37;3.15;;;1.70;;
63664;SDS011;49820;33.966;73.390;2023-02-01T04:18:06;2.72;;;1.58;;
63664;SDS011;49820;33.966;73.390;2023-02-01T04:20:35;3.38;;;1.60;;
63664;SDS011;49820;33.966;73.390;2023-02-01T04:23:05;3.57;;;1.73;;
63664;SDS011;49820;33.966;73.390;2023-02-01T04:25:34;3.13;;;1.60;;
63664;SDS011;49820;33.966;73.390;2023-02-01T04:28:03;3.63;;;1.77;;
63664;SDS011;49820;33.966;73.390;2023-02-01T04:30:35;2.63;;;1.50;;
63664;SDS011;49820;33.966;73.390;2023-02-01T04:33:04;2.35;;;1.60;;
63664;SDS011;49820;33.966;73.390;2023-02-01T04:35:33;3.00;;;1.83;;
63664;SDS011;49820;33.966;73.390;2023-02-01T04:38:03;2.90;;;1.90;;
63664;SDS011;49820;33.966;73.390;2023-02-01T04:40:32;3.47;;;1.77;;
63664;SDS011;49820;33.966;73.390;2023-02-01T04:43:03;2.35;;;1.60;;
63664;SDS011;49820;33.966;73.390;2023-02-01T04:45:32;3.25;;;1.92;;
63664;SDS011;49820;33.966;73.390;2023-02-01T04:48:01;3.03;;;1.77;;
63664;SDS011;49820;33.966;73.390;2023-02-01T04:50:30;2.47;;;1.65;;
63664;SDS011;49820;33.966;73.390;2023-02-01T04:53:00;4.68;;;1.90;;
63664;SDS011;49820;33.966;73.390;2023-02-01T04:55:30;3.50;;;1.80;;
63664;SDS011;49820;33.966;73.390;2023-02-01T04:57:59;2.70;;;1.60;;
63664;SDS011;49820;33.966;73.390;2023-02-01T05:00:28;2.63;;;1.80;;
63664;SDS011;49820;33.966;73.390;2023-02-01T05:02:58;3.00;;;1.95;;
63664;SDS011;49820;33.966;73.390;2023-02-01T05:05:27;3.08;;;1.85;;
63664;SDS011;49820;33.966;73.390;2023-02-01T05:07:57;3.45;;;2.30;;
63664;SDS011;49820;33.966;73.390;2023-02-01T05:10:28;3.83;;;2.17;;
63664;SDS011;49820;33.966;73.390;2023-02-01T05:12:57;4.00;;;2.23;;
63664;SDS011;49820;33.966;73.390;2023-02-01T05:15:45;4.53;;;2.40;;
63664;SDS011;49820;33.966;73.390;2023-02-01T05:18:15;2.72;;;1.70;;
63664;SDS011;49820;33.966;73.390;2023-02-01T05:20:44;3.53;;;2.17;;
63664;SDS011;49820;33.966;73.390;2023-02-01T05:23:13;3.90;;;2.30;;
63664;SDS011;49820;33.966;73.390;2023-02-01T05:25:43;2.90;;;2.13;;
63664;SDS011;49820;33.966;73.390;2023-02-01T05:28:12;5.05;;;2.30;;
63664;SDS011;49820;33.966;73.390;2023-02-01T05:30:42;4.00;;;2.10;;
63664;SDS011;49820;33.966;73.390;2023-02-01T05:33:11;3.10;;;2.00;;
63664;SDS011;49820;33.966;73.390;2023-02-01T05:35:40;3.78;;;2.22;;
63664;SDS011;49820;33.966;73.390;2023-02-01T05:38:09;3.50;;;2.17;;
63664;SDS011;49820;33.966;73.390;2023-02-01T05:40:42;3.73;;;2.00;;
63664;SDS011;49820;33.966;73.390;2023-02-01T05:43:17;2.78;;;1.83;;
63664;SDS011;49820;33.966;73.390;2023-02-01T05:45:47;3.60;;;2.30;;
63664;SDS011;49820;33.966;73.390;2023-02-01T05:48:16;3.47;;;2.05;;
63664;SDS011;49820;33.966;73.390;2023-02-01T05:50:46;3.63;;;2.05;;
63664;SDS011;49820;33.966;73.390;2023-02-01T05:53:15;2.95;;;1.90;;
63664;SDS011;49820;33.966;73.390;2023-02-01T05:55:45;2.33;;;1.73;;
63664;SDS011;49820;33.966;73.390;2023-02-01T05:58:14;3.40;;;1.92;;
63664;SDS011;49820;33.966;73.390;2023-02-01T06:00:44;4.05;;;2.10;;
63664;SDS011;49820;33.966;73.390;2023-02-01T06:03:13;4.45;;;2.08;;
63664;SDS011;49820;33.966;73.390;2023-02-01T06:05:46;3.15;;;1.92;;
63664;SDS011;49820;33.966;73.390;2023-02-01T06:08:16;6.95;;;2.15;;
63664;SDS011;49820;33.966;73.390;2023-02-01T06:10:45;3.08;;;2.10;;
63664;SDS011;49820;33.966;73.390;2023-02-01T06:13:14;3.73;;;2.67;;
63664;SDS011;49820;33.966;73.390;2023-02-01T06:15:44;2.63;;;1.83;;
63664;SDS011;49820;33.966;73.390;2023-02-01T06:18:13;3.13;;;1.70;;
63664;SDS011;49820;33.966;73.390;2023-02-01T06:20:44;3.42;;;2.25;;
63664;SDS011;49820;33.966;73.390;2023-02-01T06:23:13;2.55;;;1.85;;
63664;SDS011;49820;33.966;73.390;2023-02-01T06:25:43;2.50;;;1.80;;
63664;SDS011;49820;33.966;73.390;2023-02-01T06:28:13;3.60;;;2.10;;
63664;SDS011;49820;33.966;73.390;2023-02-01T06:30:42;3.20;;;1.65;;
63664;SDS011;49820;33.966;73.390;2023-02-01T06:33:15;2.88;;;2.15;;
63664;SDS011;49820;33.966;73.390;2023-02-01T06:35:44;3.03;;;2.05;;
63664;SDS011;49820;33.966;73.390;2023-02-01T06:38:15;4.17;;;2.20;;
63664;SDS011;49820;33.966;73.390;2023-02-01T06:40:45;2.67;;;2.00;;
63664;SDS011;49820;33.966;73.390;2023-02-01T06:43:23;3.83;;;2.28;;
63664;SDS011;49820;33.966;73.390;2023-02-01T06:45:53;3.28;;;2.03;;
63664;SDS011;49820;33.966;73.390;2023-02-01T06:48:33;3.17;;;2.28;;
63664;SDS011;49820;33.966;73.390;2023-02-01T06:51:03;2.95;;;1.80;;
63664;SDS011;49820;33.966;73.390;2023-02-01T06:53:33;2.78;;;1.90;;
63664;SDS011;49820;33.966;73.390;2023-02-01T06:56:03;3.63;;;2.30;;
63664;SDS011;49820;33.966;73.390;2023-02-01T06:58:33;3.22;;;2.10;;
63664;SDS011;49820;33.966;73.390;2023-02-01T07:01:05;3.42;;;2.55;;
63664;SDS011;49820;33.966;73.390;2023-02-01T07:03:37;4.20;;;2.50;;
63664;SDS011;49820;33.966;73.390;2023-02-01T07:06:07;3.92;;;2.42;;
63664;SDS011;49820;33.966;73.390;2023-02-01T07:08:37;4.25;;;2.90;;
63664;SDS011;49820;33.966;73.390;2023-02-01T07:11:08;3.67;;;2.78;;
63664;SDS011;49820;33.966;73.390;2023-02-01T07:13:39;4.78;;;2.90;;
63664;SDS011;49820;33.966;73.390;2023-02-01T07:16:11;5.55;;;3.70;;
63664;SDS011;49820;33.966;73.390;2023-02-01T07:18:43;5.15;;;3.90;;
63664;SDS011;49820;33.966;73.390;2023-02-01T07:21:13;4.47;;;3.65;;
63664;SDS011;49820;33.966;73.390;2023-02-01T07:23:43;4.72;;;3.90;;
63664;SDS011;49820;33.966;73.390;2023-02-01T07:26:13;6.43;;;5.45;;
63664;SDS011;49820;33.966;73.390;2023-02-01T07:28:43;7.57;;;5.80;;
63664;SDS011;49820;33.966;73.390;2023-02-01T07:31:13;7.85;;;6.25;;
63664;SDS011;49820;33.966;73.390;2023-02-01T07:33:46;9.25;;;7.68;;
63664;SDS011;49820;33.966;73.390;2023-02-01T07:36:19;9.25;;;7.60;;
63664;SDS011;49820;33.966;73.390;2023-02-01T07:38:49;9.93;;;8.45;;
63664;SDS011;49820;33.966;73.390;2023-02-01T07:41:24;9.82;;;8.15;;
63664;SDS011;49820;33.966;73.390;2023-02-01T07:43:53;12.57;;;10.05;;
63664;SDS011;49820;33.966;73.390;2023-02-01T07:46:23;11.07;;;9.80;;
63664;SDS011;49820;33.966;73.390;2023-02-01T07:48:53;9.77;;;8.35;;
63664;SDS011;49820;33.966;73.390;2023-02-01T07:51:23;12.52;;;10.57;;
63664;SDS011;49820;33.966;73.390;2023-02-01T07:53:52;12.82;;;10.75;;
63664;SDS011;49820;33.966;73.390;2023-02-01T07:56:24;11.85;;;9.95;;
63664;SDS011;49820;33.966;73.390;2023-02-01T07:58:53;10.50;;;9.20;;
63664;SDS011;49820;33.966;73.390;2023-02-01T08:01:24;9.05;;;7.85;;
63664;SDS011;49820;33.966;73.390;2023-02-01T08:04:00;8.98;;;7.38;;
63664;SDS011;49820;33.966;73.390;2023-02-01T08:06:31;8.20;;;7.18;;
63664;SDS011;49820;33.966;73.390;2023-02-01T08:09:05;8.60;;;7.00;;
63664;SDS011;49820;33.966;73.390;2023-02-01T08:11:39;9.13;;;7.50;;
63664;SDS011;49820;33.966;73.390;2023-02-01T08:14:08;9.70;;;7.77;;
63664;SDS011;49820;33.966;73.390;2023-02-01T08:16:37;7.72;;;6.55;;
63664;SDS011;49820;33.966;73.390;2023-02-01T08:19:07;8.30;;;7.30;;
63664;SDS011;49820;33.966;73.390;2023-02-01T08:21:36;9.15;;;7.43;;
63664;SDS011;49820;33.966;73.390;2023-02-01T08:24:07;8.95;;;7.60;;
63664;SDS011;49820;33.966;73.390;2023-02-01T08:26:38;6.32;;;5.50;;
63664;SDS011;49820;33.966;73.390;2023-02-01T08:29:08;8.23;;;7.25;;
63664;SDS011;49820;33.966;73.390;2023-02-01T08:31:40;8.02;;;6.70;;
63664;SDS011;49820;33.966;73.390;2023-02-01T08:34:10;8.85;;;7.95;;
63664;SDS011;49820;33.966;73.390;2023-02-01T08:36:40;8.93;;;7.43;;
63664;SDS011;49820;33.966;73.390;2023-02-01T08:39:10;10.52;;;8.75;;
63664;SDS011;49820;33.966;73.390;2023-02-01T08:41:40;11.50;;;9.10;;
63664;SDS011;49820;33.966;73.390;2023-02-01T08:44:10;10.45;;;8.80;;
63664;SDS011;49820;33.966;73.390;2023-02-01T08:46:40;11.45;;;9.80;;
63664;SDS011;49820;33.966;73.390;2023-02-01T08:49:09;10.57;;;8.82;;
63664;SDS011;49820;33.966;73.390;2023-02-01T08:51:38;8.88;;;7.50;;
63664;SDS011;49820;33.966;73.390;2023-02-01T08:54:08;7.53;;;5.80;;
63664;SDS011;49820;33.966;73.390;2023-02-01T08:56:37;7.18;;;5.20;;
63664;SDS011;49820;33.966;73.390;2023-02-01T08:59:07;6.95;;;5.28;;
63664;SDS011;49820;33.966;73.390;2023-02-01T09:01:36;7.32;;;5.78;;
63664;SDS011;49820;33.966;73.390;2023-02-01T09:04:06;7.45;;;5.78;;
63664;SDS011;49820;33.966;73.390;2023-02-01T09:06:36;7.15;;;5.72;;
63664;SDS011;49820;33.966;73.390;2023-02-01T09:09:09;8.40;;;6.05;;
63664;SDS011;49820;33.966;73.390;2023-02-01T09:11:38;8.35;;;6.18;;
63664;SDS011;49820;33.966;73.390;2023-02-01T09:14:08;9.48;;;5.68;;
63664;SDS011;49820;33.966;73.390;2023-02-01T09:16:37;6.72;;;5.38;;
63664;SDS011;49820;33.966;73.390;2023-02-01T09:19:09;6.63;;;5.00;;
63664;SDS011;49820;33.966;73.390;2023-02-01T09:21:53;6.32;;;4.82;;
63664;SDS011;49820;33.966;73.390;2023-02-01T09:24:22;6.18;;;4.68;;
63664;SDS011;49820;33.966;73.390;2023-02-01T09:26:52;7.85;;;5.43;;
63664;SDS011;49820;33.966;73.390;2023-02-01T09:29:21;7.20;;;5.22;;
63664;SDS011;49820;33.966;73.390;2023-02-01T09:31:51;6.65;;;4.05;;
63664;SDS011;49820;33.966;73.390;2023-02-01T09:34:30;6.18;;;4.20;;
63664;SDS011;49820;33.966;73.390;2023-02-01T09:37:00;5.25;;;4.10;;
63664;SDS011;49820;33.966;73.390;2023-02-01T09:39:30;5.75;;;4.00;;
63664;SDS011;49820;33.966;73.390;2023-02-01T09:44:54;5.68;;;4.18;;
63664;SDS011;49820;33.966;73.390;2023-02-01T09:47:35;6.28;;;4.40;;
63664;SDS011;49820;33.966;73.390;2023-02-01T09:50:18;7.15;;;4.90;;
63664;SDS011;49820;33.966;73.390;2023-02-01T09:58:07;5.28;;;4.32;;
63664;SDS011;49820;33.966;73.390;2023-02-01T10:00:50;7.43;;;4.90;;
63664;SDS011;49820;33.966;73.390;2023-02-01T10:03:26;6.10;;;4.43;;
63664;SDS011;49820;33.966;73.390;2023-02-01T10:09:49;5.82;;;4.28;;
63664;SDS011;49820;33.966;73.390;2023-02-01T10:26:46;6.60;;;5.10;;
63664;SDS011;49820;33.966;73.390;2023-02-01T10:29:37;6.88;;;4.85;;
63664;SDS011;49820;33.966;73.390;2023-02-01T10:32:31;6.95;;;5.20;;
63664;SDS011;49820;33.966;73.390;2023-02-01T10:35:13;6.32;;;4.97;;
63664;SDS011;49820;33.966;73.390;2023-02-01T10:37:52;6.78;;;5.22;;
63664;SDS011;49820;33.966;73.390;2023-02-01T10:40:23;5.65;;;4.35;;
63664;SDS011;49820;33.966;73.390;2023-02-01T10:42:59;7.82;;;5.28;;
63664;SDS011;49820;33.966;73.390;2023-02-01T10:45:33;7.80;;;5.35;;
63664;SDS011;49820;33.966;73.390;2023-02-01T10:48:03;7.13;;;5.40;;
63664;SDS011;49820;33.966;73.390;2023-02-01T10:50:35;6.63;;;5.00;;
63664;SDS011;49820;33.966;73.390;2023-02-01T10:53:34;7.43;;;5.63;;
63664;SDS011;49820;33.966;73.390;2023-02-01T10:56:11;7.07;;;5.60;;
63664;SDS011;49820;33.966;73.390;2023-02-01T10:58:47;7.85;;;5.40;;
63664;SDS011;49820;33.966;73.390;2023-02-01T11:01:19;6.68;;;4.53;;
63664;SDS011;49820;33.966;73.390;2023-02-01T11:03:57;6.80;;;4.13;;
63664;SDS011;49820;33.966;73.390;2023-02-01T11:09:00;5.50;;;2.97;;
63664;SDS011;49820;33.966;73.390;2023-02-01T11:14:18;3.60;;;2.65;;
63664;SDS011;49820;33.966;73.390;2023-02-01T11:16:55;4.47;;;3.00;;
63664;SDS011;49820;33.966;73.390;2023-02-01T11:19:28;4.47;;;2.97;;
63664;SDS011;49820;33.966;73.390;2023-02-01T11:22:00;3.88;;;2.08;;
63664;SDS011;49820;33.966;73.390;2023-02-01T11:24:34;3.38;;;2.00;;
63664;SDS011;49820;33.966;73.390;2023-02-01T11:27:13;3.55;;;2.30;;
63664;SDS011;49820;33.966;73.390;2023-02-01T11:29:56;3.95;;;2.13;;
63664;SDS011;49820;33.966;73.390;2023-02-01T11:32:30;6.32;;;3.67;;
63664;SDS011;49820;33.966;73.390;2023-02-01T11:35:04;6.43;;;4.28;;
63664;SDS011;49820;33.966;73.390;2023-02-01T11:37:39;7.00;;;4.85;;
63664;SDS011;49820;33.966;73.390;2023-02-01T11:42:59;7.57;;;4.68;;
63664;SDS011;49820;33.966;73.390;2023-02-01T11:45:35;9.15;;;5.68;;
63664;SDS011;49820;33.966;73.390;2023-02-01T11:48:10;9.00;;;6.50;;
63664;SDS011;49820;33.966;73.390;2023-02-01T11:51:07;9.65;;;7.38;;
63664;SDS011;49820;33.966;73.390;2023-02-01T11:54:00;11.90;;;8.05;;
63664;SDS011;49820;33.966;73.390;2023-02-01T12:05:41;12.27;;;7.60;;
63664;SDS011;49820;33.966;73.390;2023-02-01T12:14:30;7.03;;;4.70;;
63664;SDS011;49820;33.966;73.390;2023-02-01T12:43:20;6.30;;;3.42;;
63664;SDS011;49820;33.966;73.390;2023-02-01T12:46:31;9.05;;;4.22;;
63664;SDS011;49820;33.966;73.390;2023-02-01T12:49:28;9.10;;;4.55;;
63664;SDS011;49820;33.966;73.390;2023-02-01T12:52:21;7.35;;;3.65;;
63664;SDS011;49820;33.966;73.390;2023-02-01T12:55:15;5.35;;;2.90;;
63664;SDS011;49820;33.966;73.390;2023-02-01T13:00:52;4.35;;;2.70;;
63664;SDS011;49820;33.966;73.390;2023-02-01T13:03:55;3.92;;;2.08;;
63664;SDS011;49820;33.966;73.390;2023-02-01T13:09:20;4.20;;;2.05;;
63664;SDS011;49820;33.966;73.390;2023-02-01T13:11:57;6.53;;;2.70;;
63664;SDS011;49820;33.966;73.390;2023-02-01T13:17:26;10.05;;;2.80;;
63664;SDS011;49820;33.966;73.390;2023-02-01T13:20:20;4.57;;;1.73;;
63664;SDS011;49820;33.966;73.390;2023-02-01T13:23:04;4.32;;;1.88;;
63664;SDS011;49820;33.966;73.390;2023-02-01T13:25:52;7.60;;;3.00;;
63664;SDS011;49820;33.966;73.390;2023-02-01T13:31:16;4.45;;;1.98;;
63664;SDS011;49820;33.966;73.390;2023-02-01T13:42:28;2.80;;;1.98;;
63664;SDS011;49820;33.966;73.390;2023-02-01T13:47:57;3.00;;;1.50;;
63664;SDS011;49820;33.966;73.390;2023-02-01T13:50:37;3.13;;;1.67;;
63664;SDS011;49820;33.966;73.390;2023-02-01T13:53:16;3.40;;;1.60;;
63664;SDS011;49820;33.966;73.390;2023-02-01T13:55:58;3.17;;;1.80;;
63664;SDS011;49820;33.966;73.390;2023-02-01T13:58:41;3.20;;;1.70;;
63664;SDS011;49820;33.966;73.390;2023-02-01T14:04:03;3.38;;;2.08;;
63664;SDS011;49820;33.966;73.390;2023-02-01T14:06:38;4.22;;;2.10;;
63664;SDS011;49820;33.966;73.390;2023-02-01T14:09:14;4.75;;;2.00;;
63664;SDS011;49820;33.966;73.390;2023-02-01T14:15:17;4.78;;;1.95;;
63664;SDS011;49820;33.966;73.390;2023-02-01T14:17:55;2.70;;;1.70;;
63664;SDS011;49820;33.966;73.390;2023-02-01T14:20:42;2.90;;;1.75;;
63664;SDS011;49820;33.966;73.390;2023-02-01T14:23:22;3.70;;;1.60;;
63664;SDS011;49820;33.966;73.390;2023-02-01T14:26:01;2.55;;;1.70;;
63664;SDS011;49820;33.966;73.390;2023-02-01T14:28:34;2.75;;;1.42;;
63664;SDS011;49820;33.966;73.390;2023-02-01T14:31:14;2.40;;;1.40;;
63664;SDS011;49820;33.966;73.390;2023-02-01T14:33:57;2.67;;;1.50;;
63664;SDS011;49820;33.966;73.390;2023-02-01T14:36:41;2.93;;;1.50;;
63664;SDS011;49820;33.966;73.390;2023-02-01T14:39:23;2.63;;;1.60;;
63664;SDS011;49820;33.966;73.390;2023-02-01T14:42:27;2.85;;;1.58;;
63664;SDS011;49820;33.966;73.390;2023-02-01T14:48:17;4.20;;;2.03;;
63664;SDS011;49820;33.966;73.390;2023-02-01T14:50:49;3.53;;;2.00;;
63664;SDS011;49820;33.966;73.390;2023-02-01T14:53:22;3.50;;;1.90;;
63664;SDS011;49820;33.966;73.390;2023-02-01T14:56:07;3.40;;;1.75;;
63664;SDS011;49820;33.966;73.390;2023-02-01T14:58:56;4.97;;;2.40;;
63664;SDS011;49820;33.966;73.390;2023-02-01T15:01:36;3.78;;;1.88;;
63664;SDS011;49820;33.966;73.390;2023-02-01T15:04:11;3.25;;;2.10;;
63664;SDS011;49820;33.966;73.390;2023-02-01T15:09:33;2.70;;;1.80;;
63664;SDS011;49820;33.966;73.390;2023-02-01T15:12:33;3.40;;;1.77;;
63664;SDS011;49820;33.966;73.390;2023-02-01T15:15:23;5.00;;;1.90;;
63664;SDS011;49820;33.966;73.390;2023-02-01T15:17:58;3.37;;;2.07;;
63664;SDS011;49820;33.966;73.390;2023-02-01T15:20:29;4.13;;;2.20;;
63664;SDS011;49820;33.966;73.390;2023-02-01T15:23:14;4.32;;;2.38;;
63664;SDS011;49820;33.966;73.390;2023-02-01T15:25:50;3.17;;;2.00;;
63664;SDS011;49820;33.966;73.390;2023-02-01T15:28:19;3.95;;;2.30;;
63664;SDS011;49820;33.966;73.390;2023-02-01T15:33:31;3.30;;;2.23;;
63664;SDS011;49820;33.966;73.390;2023-02-01T15:38:41;5.82;;;2.75;;
63664;SDS011;49820;33.966;73.390;2023-02-01T15:41:17;4.68;;;2.13;;
63664;SDS011;49820;33.966;73.390;2023-02-01T15:46:40;4.80;;;2.70;;
63664;SDS011;49820;33.966;73.390;2023-02-01T15:49:18;5.07;;;2.67;;
63664;SDS011;49820;33.966;73.390;2023-02-01T15:51:48;4.63;;;2.47;;
63664;SDS011;49820;33.966;73.390;2023-02-01T15:54:20;4.55;;;2.33;;
63664;SDS011;49820;33.966;73.390;2023-02-01T15:56:54;3.80;;;2.10;;
63664;SDS011;49820;33.966;73.390;2023-02-01T16:00:02;4.85;;;2.17;;
63664;SDS011;49820;33.966;73.390;2023-02-01T16:02:37;3.40;;;2.10;;
63664;SDS011;49820;33.966;73.390;2023-02-01T16:05:32;4.17;;;2.50;;
63664;SDS011;49820;33.966;73.390;2023-02-01T16:08:19;2.53;;;1.75;;
63664;SDS011;49820;33.966;73.390;2023-02-01T16:11:13;3.72;;;2.03;;
63664;SDS011;49820;33.966;73.390;2023-02-01T16:13:51;3.10;;;2.10;;
63664;SDS011;49820;33.966;73.390;2023-02-01T16:16:21;4.63;;;2.63;;
63664;SDS011;49820;33.966;73.390;2023-02-01T16:18:51;4.07;;;1.90;;
63664;SDS011;49820;33.966;73.390;2023-02-01T16:21:22;3.28;;;2.10;;
63664;SDS011;49820;33.966;73.390;2023-02-01T16:23:52;3.53;;;1.98;;
63664;SDS011;49820;33.966;73.390;2023-02-01T16:26:23;3.53;;;1.90;;
63664;SDS011;49820;33.966;73.390;2023-02-01T16:28:52;5.17;;;2.23;;
63664;SDS011;49820;33.966;73.390;2023-02-01T16:31:28;3.13;;;1.90;;
63664;SDS011;49820;33.966;73.390;2023-02-01T16:34:02;3.17;;;2.05;;
63664;SDS011;49820;33.966;73.390;2023-02-01T16:36:34;3.28;;;2.00;;
63664;SDS011;49820;33.966;73.390;2023-02-01T16:39:04;3.40;;;1.67;;
63664;SDS011;49820;33.966;73.390;2023-02-01T16:41:36;3.67;;;1.95;;
63664;SDS011;49820;33.966;73.390;2023-02-01T16:44:07;4.20;;;1.92;;
63664;SDS011;49820;33.966;73.390;2023-02-01T16:46:40;2.97;;;1.70;;
63664;SDS011;49820;33.966;73.390;2023-02-01T16:49:18;3.72;;;1.98;;
63664;SDS011;49820;33.966;73.390;2023-02-01T16:51:52;4.40;;;1.80;;
63664;SDS011;49820;33.966;73.390;2023-02-01T16:54:27;4.35;;;1.90;;
63664;SDS011;49820;33.966;73.390;2023-02-01T16:56:57;3.67;;;2.03;;
63664;SDS011;49820;33.966;73.390;2023-02-01T16:59:27;3.80;;;2.00;;
63664;SDS011;49820;33.966;73.390;2023-02-01T17:01:58;3.17;;;1.88;;
63664;SDS011;49820;33.966;73.390;2023-02-01T17:04:28;3.40;;;2.40;;
63664;SDS011;49820;33.966;73.390;2023-02-01T17:06:58;3.50;;;1.83;;
63664;SDS011;49820;33.966;73.390;2023-02-01T17:09:36;3.13;;;1.77;;
63664;SDS011;49820;33.966;73.390;2023-02-01T17:12:09;2.70;;;1.67;;
63664;SDS011;49820;33.966;73.390;2023-02-01T17:14:54;3.63;;;1.63;;
63664;SDS011;49820;33.966;73.390;2023-02-01T17:17:34;3.80;;;1.85;;
63664;SDS011;49820;33.966;73.390;2023-02-01T17:20:07;2.92;;;1.33;;
63664;SDS011;49820;33.966;73.390;2023-02-01T17:22:50;2.70;;;1.40;;
63664;SDS011;49820;33.966;73.390;2023-02-01T17:25:21;2.85;;;1.58;;
63664;SDS011;49820;33.966;73.390;2023-02-01T17:27:54;2.97;;;1.48;;
63664;SDS011;49820;33.966;73.390;2023-02-01T17:30:24;3.43;;;1.67;;
63664;SDS011;49820;33.966;73.390;2023-02-01T17:32:54;2.72;;;1.70;;
63664;SDS011;49820;33.966;73.390;2023-02-01T17:35:25;3.30;;;1.70;;
63664;SDS011;49820;33.966;73.390;2023-02-01T17:37:55;4.18;;;1.95;;
63664;SDS011;49820;33.966;73.390;2023-02-01T17:40:25;3.53;;;1.98;;
63664;SDS011;49820;33.966;73.390;2023-02-01T17:42:57;3.13;;;1.70;;
63664;SDS011;49820;33.966;73.390;2023-02-01T17:45:37;3.65;;;1.83;;
63664;SDS011;49820;33.966;73.390;2023-02-01T17:48:14;2.85;;;1.50;;
63664;SDS011;49820;33.966;73.390;2023-02-01T17:50:45;2.35;;;1.50;;
63664;SDS011;49820;33.966;73.390;2023-02-01T17:53:28;3.00;;;1.90;;
63664;SDS011;49820;33.966;73.390;2023-02-01T17:55:58;2.85;;;1.50;;
63664;SDS011;49820;33.966;73.390;2023-02-01T17:58:29;2.63;;;1.65;;
63664;SDS011;49820;33.966;73.390;2023-02-01T18:01:00;4.60;;;2.08;;